Havelock, Nebraska
Current Conditions -  °F | °C
As of 8:54 AM on Sunday 23 Nov 2014 (Local Time) from KLNK Reporting Station
Overcast Overcast  
Wind Chill: 53°   Ceiling: 3000
Heat Index: 53°   Visibility: 10mi
Dew Point: 50°   Wind: 6mph
Humidity: 89%   Direction: 240°WSW
Pressure: 29.49"   Gusts: NA
Location:  40.8505°N, 96.6337°W
Report Text: KLNK 231454Z 24005KT 10SM FEW025 BKN030 OVC070 12/10 A2949 RMK AO2 SLP985 T01170100 50010
Loading
Personal Weather Stations






























Interactive Weather Map New forecast layout! Learn more

10-Day Weather Forecast

Advertisements
Track Severe Weather on mobile